Time;durP1;ratioP1;P1;durP2;ratioP2;P2;SDS_P1;SDS_P2;PMS_P1;PMS_P2;Temp;Humidity;BMP_temperature;BMP_pressure;BME280_temperature;BME280_humidity;BME280_pressure;Samples;Min_cycle;Max_cycle;Signal;HPM_P1;HPM_P2
2021/04/19 00:00:44;;;;;;;103.63;70.65;;;6.10;99.90;;;;;;5118413;28;20011;-80
2021/04/19 00:03:11;;;;;;;108.05;69.90;;;6.20;99.90;;;;;;5118893;28;20020;-73
2021/04/19 00:05:37;;;;;;;88.70;58.67;;;6.20;99.90;;;;;;5118836;28;20023;-73
2021/04/19 00:08:04;;;;;;;88.28;58.70;;;6.20;99.90;;;;;;5101242;28;20031;-75
2021/04/19 00:10:30;;;;;;;73.30;43.30;;;6.20;99.90;;;;;;5119515;28;20020;-82
2021/04/19 00:12:56;;;;;;;53.13;36.05;;;6.20;99.90;;;;;;5118624;28;20019;-77
2021/04/19 00:15:23;;;;;;;82.13;48.15;;;6.30;99.90;;;;;;5119824;28;20052;-74
2021/04/19 00:17:49;;;;;;;77.18;51.72;;;6.30;99.90;;;;;;5119956;28;20025;-81
2021/04/19 00:20:16;;;;;;;41.85;29.00;;;6.30;99.90;;;;;;5118782;28;20084;-75
2021/04/19 00:22:42;;;;;;;40.88;29.58;;;6.40;99.90;;;;;;5102142;28;20031;-73
2021/04/19 00:25:09;;;;;;;194.70;91.95;;;6.40;99.90;;;;;;5119255;28;20016;-73
2021/04/19 00:27:36;;;;;;;52.05;39.08;;;6.30;99.90;;;;;;5118086;28;20028;-79
2021/04/19 00:30:05;;;;;;;44.05;33.03;;;6.30;99.90;;;;;;5118863;28;20065;-82
2021/04/19 00:32:31;;;;;;;39.13;29.50;;;6.30;99.90;;;;;;5118250;28;20015;-75
2021/04/19 00:34:57;;;;;;;47.58;36.38;;;6.40;99.90;;;;;;5120441;28;20038;-73
2021/04/19 00:37:23;;;;;;;49.30;37.35;;;6.30;99.90;;;;;;5118255;28;20032;-79
2021/04/19 00:39:49;;;;;;;43.67;33.45;;;6.20;99.90;;;;;;5117816;28;20491;-81
2021/04/19 00:42:16;;;;;;;40.67;32.42;;;6.20;99.90;;;;;;5118582;28;20023;-75
2021/04/19 00:44:44;;;;;;;37.25;30.17;;;6.20;99.90;;;;;;5119319;28;20016;-72
2021/04/19 00:47:11;;;;;;;38.85;29.65;;;6.30;99.90;;;;;;5118690;28;20020;-82
2021/04/19 00:49:38;;;;;;;35.00;28.85;;;6.30;99.90;;;;;;5118568;28;20016;-74
2021/04/19 00:52:05;;;;;;;32.30;26.52;;;6.30;99.90;;;;;;5118413;28;20081;-78
2021/04/19 00:54:31;;;;;;;31.95;25.80;;;6.20;99.90;;;;;;5120405;28;20024;-75
2021/04/19 00:56:58;;;;;;;32.08;25.92;;;6.30;99.90;;;;;;5099262;28;20028;-79
2021/04/19 00:59:23;;;;;;;51.17;34.42;;;6.30;99.90;;;;;;5117522;28;20012;-79
2021/04/19 01:01:50;;;;;;;37.30;29.27;;;6.30;99.90;;;;;;5099974;28;20084;-81
2021/04/19 01:04:16;;;;;;;42.33;32.42;;;6.30;99.90;;;;;;5118650;28;20023;-82
2021/04/19 01:06:42;;;;;;;33.42;25.95;;;6.30;99.90;;;;;;5118707;28;20023;-80
2021/04/19 01:09:09;;;;;;;35.13;28.27;;;6.30;99.90;;;;;;5118942;28;20023;-74
2021/04/19 01:11:35;;;;;;;31.52;25.63;;;6.30;99.90;;;;;;5118004;28;20373;-74
2021/04/19 01:14:01;;;;;;;31.00;26.02;;;6.10;99.90;;;;;;5117316;28;20027;-75
2021/04/19 01:16:27;;;;;;;33.75;26.30;;;6.10;99.90;;;;;;5116233;28;20136;-74
2021/04/19 01:18:53;;;;;;;34.80;27.25;;;6.10;99.90;;;;;;5116462;28;20020;-74
2021/04/19 01:21:18;;;;;;;29.90;25.17;;;6.10;99.90;;;;;;5118777;28;20041;-73
2021/04/19 01:23:44;;;;;;;27.13;22.58;;;6.10;99.90;;;;;;5099088;28;20023;-75
2021/04/19 01:26:10;;;;;;;28.77;22.15;;;6.10;99.90;;;;;;5099094;28;20047;-73
2021/04/19 01:28:36;;;;;;;27.33;22.95;;;6.00;99.90;;;;;;5117700;28;20058;-77
2021/04/19 01:31:02;;;;;;;28.08;23.02;;;5.90;99.90;;;;;;5099330;28;20026;-73
2021/04/19 01:33:28;;;;;;;30.33;23.88;;;5.90;99.90;;;;;;5118099;28;20016;-82
2021/04/19 01:35:54;;;;;;;36.33;28.15;;;5.80;99.90;;;;;;5097796;28;20028;-74
2021/04/19 01:38:23;;;;;;;48.75;36.40;;;5.80;99.90;;;;;;5098354;28;20470;-82
2021/04/19 01:40:50;;;;;;;60.03;42.60;;;5.70;99.90;;;;;;5119980;28;20020;-75
2021/04/19 01:43:17;;;;;;;57.92;42.38;;;5.70;99.90;;;;;;5117780;28;20038;-79
2021/04/19 01:45:43;;;;;;;57.97;43.53;;;5.70;99.90;;;;;;5119045;28;20059;-82
2021/04/19 01:48:10;;;;;;;57.28;43.60;;;5.70;99.90;;;;;;5117755;28;20058;-82
2021/04/19 01:50:36;;;;;;;60.33;45.03;;;5.80;99.90;;;;;;5118090;28;20022;-78
2021/04/19 01:53:03;;;;;;;57.80;43.00;;;5.70;99.90;;;;;;5117449;28;20072;-75
2021/04/19 01:55:31;;;;;;;50.55;38.10;;;5.70;99.90;;;;;;5119589;28;20028;-78
2021/04/19 01:58:10;;;;;;;47.70;36.25;;;5.70;99.90;;;;;;5099742;28;20106;-73
2021/04/19 02:00:39;;;;;;;48.17;37.20;;;5.70;99.90;;;;;;5121638;28;20019;-74
2021/04/19 02:03:12;;;;;;;59.45;45.72;;;5.70;99.90;;;;;;5121521;28;20015;-73
2021/04/19 02:06:08;;;;;;;41.63;32.38;;;5.70;99.90;;;;;;5120345;28;20055;-76
2021/04/19 02:08:46;;;;;;;41.45;31.83;;;5.80;99.90;;;;;;5121311;28;20392;-81
2021/04/19 02:11:36;;;;;;;44.63;31.55;;;5.90;99.90;;;;;;5121895;28;20027;-76
2021/04/19 02:14:17;;;;;;;43.53;29.27;;;5.90;99.90;;;;;;5122143;28;20020;-81
2021/04/19 02:16:59;;;;;;;41.83;29.75;;;6.00;99.90;;;;;;5102568;28;20024;-75
2021/04/19 02:19:34;;;;;;;38.92;27.23;;;5.90;99.90;;;;;;5122194;28;20024;-77
2021/04/19 02:22:23;;;;;;;35.83;25.90;;;5.90;99.90;;;;;;5122826;28;20011;-73
2021/04/19 02:24:51;;;;;;;33.67;25.98;;;6.00;99.90;;;;;;5104298;28;20027;-78
2021/04/19 02:27:30;;;;;;;38.00;27.88;;;6.10;99.90;;;;;;5121112;28;20104;-75
2021/04/19 02:29:59;;;;;;;38.30;27.63;;;6.10;99.90;;;;;;5120542;28;20019;-76
2021/04/19 02:32:32;;;;;;;42.60;29.38;;;6.10;99.90;;;;;;5120410;28;20514;-74
2021/04/19 02:35:02;;;;;;;33.88;26.48;;;6.10;99.90;;;;;;5121390;28;20031;-81
2021/04/19 02:37:31;;;;;;;32.45;24.00;;;6.10;99.90;;;;;;5120909;28;20358;-74
2021/04/19 02:39:58;;;;;;;33.58;25.23;;;6.10;99.90;;;;;;5100601;28;20031;-74
2021/04/19 02:42:26;;;;;;;30.55;23.77;;;6.10;99.90;;;;;;5102081;28;20020;-81
2021/04/19 02:44:54;;;;;;;34.05;24.40;;;6.10;99.90;;;;;;5119978;28;20027;-74
2021/04/19 02:47:21;;;;;;;34.65;25.77;;;6.10;99.90;;;;;;5120548;28;20077;-74
2021/04/19 02:49:48;;;;;;;52.95;33.35;;;6.10;99.90;;;;;;5120598;28;20030;-74
2021/04/19 02:52:16;;;;;;;48.25;32.10;;;6.10;99.90;;;;;;5101735;28;20347;-81
2021/04/19 02:54:44;;;;;;;50.67;33.08;;;6.20;99.90;;;;;;5119041;28;20020;-80
2021/04/19 02:57:26;;;;;;;69.40;43.97;;;6.20;99.90;;;;;;5121072;28;20023;-75
2021/04/19 02:59:55;;;;;;;86.68;53.00;;;6.20;99.90;;;;;;5103004;28;20032;-77
2021/04/19 03:02:25;;;;;;;51.17;32.05;;;6.20;99.90;;;;;;5120188;28;20026;-81
2021/04/19 03:04:52;;;;;;;40.35;27.42;;;6.30;99.90;;;;;;5121333;28;20020;-77
2021/04/19 03:07:21;;;;;;;33.00;24.73;;;6.30;99.90;;;;;;5119478;28;20016;-84
2021/04/19 03:09:52;;;;;;;28.70;22.17;;;6.20;99.90;;;;;;5121119;28;20016;-77
2021/04/19 03:12:21;;;;;;;26.70;20.80;;;6.20;99.90;;;;;;5103376;28;20488;-76
2021/04/19 03:14:55;;;;;;;24.88;19.00;;;6.10;99.90;;;;;;5106011;28;20076;-80
2021/04/19 03:17:24;;;;;;;26.42;20.83;;;6.10;99.90;;;;;;5106014;28;20035;-81
2021/04/19 03:20:11;;;;;;;25.65;20.60;;;6.00;99.90;;;;;;5121767;28;20050;-81
2021/04/19 03:22:41;;;;;;;24.58;19.33;;;5.90;99.90;;;;;;5120483;28;20023;-76
2021/04/19 03:25:09;;;;;;;25.73;19.98;;;6.00;99.90;;;;;;5102364;28;20054;-74
2021/04/19 03:27:36;;;;;;;35.92;27.17;;;6.00;99.90;;;;;;5123447;28;20469;-76
2021/04/19 03:30:04;;;;;;;49.75;36.60;;;5.90;99.90;;;;;;5103244;28;19999;-81
2021/04/19 03:32:38;;;;;;;41.75;29.55;;;6.00;99.90;;;;;;5102727;28;20112;-75
2021/04/19 03:35:08;;;;;;;42.47;29.27;;;6.10;99.90;;;;;;5121004;28;20015;-75
2021/04/19 03:37:37;;;;;;;45.00;32.38;;;6.10;99.90;;;;;;5119802;28;20059;-77
2021/04/19 03:40:13;;;;;;;45.00;32.45;;;6.10;99.90;;;;;;5122787;28;20052;-81
2021/04/19 03:42:40;;;;;;;41.22;30.60;;;6.20;99.90;;;;;;5120001;28;20077;-79
2021/04/19 03:45:08;;;;;;;34.72;26.08;;;6.20;99.90;;;;;;5121374;28;20019;-79
2021/04/19 03:47:37;;;;;;;32.58;23.33;;;6.20;99.90;;;;;;5121726;28;20028;-76
2021/04/19 03:50:05;;;;;;;38.75;26.45;;;6.10;99.90;;;;;;5120934;28;20492;-81
2021/04/19 03:52:35;;;;;;;28.83;22.70;;;6.00;99.90;;;;;;5105955;28;20027;-76
2021/04/19 03:55:04;;;;;;;30.23;22.70;;;6.00;99.90;;;;;;5122704;28;20019;-74
2021/04/19 03:57:32;;;;;;;31.05;22.83;;;5.90;99.90;;;;;;5122598;28;20024;-76
2021/04/19 04:00:05;;;;;;;51.15;26.45;;;6.00;99.90;;;;;;5121687;28;20023;-75
2021/04/19 04:02:34;;;;;;;33.58;23.92;;;6.10;99.90;;;;;;5120162;28;20028;-80
2021/04/19 04:05:01;;;;;;;33.90;23.42;;;6.10;99.90;;;;;;5120358;28;20038;-81
2021/04/19 04:07:29;;;;;;;36.00;26.95;;;6.10;99.90;;;;;;5120351;28;20028;-74
2021/04/19 04:09:57;;;;;;;60.50;39.78;;;6.10;99.90;;;;;;5119577;28;20050;-78
2021/04/19 04:12:23;;;;;;;41.58;29.40;;;6.20;99.90;;;;;;5105740;28;20023;-80
2021/04/19 04:14:51;;;;;;;47.92;31.23;;;6.20;99.90;;;;;;5120442;28;20405;-74
2021/04/19 04:17:18;;;;;;;64.18;39.88;;;6.20;99.90;;;;;;5103474;28;20095;-80
2021/04/19 04:19:45;;;;;;;108.75;64.40;;;6.30;99.90;;;;;;5123293;28;20112;-81
2021/04/19 04:22:12;;;;;;;69.90;41.72;;;6.40;99.90;;;;;;5120807;28;20483;-81
2021/04/19 04:24:39;;;;;;;59.60;36.50;;;6.40;99.90;;;;;;5119636;28;20030;-74
2021/04/19 04:27:06;;;;;;;62.80;39.33;;;6.40;99.90;;;;;;5118457;28;20044;-80
2021/04/19 04:29:32;;;;;;;58.30;37.08;;;6.40;99.90;;;;;;5125652;28;20020;-77
2021/04/19 04:31:58;;;;;;;55.17;35.25;;;6.40;99.90;;;;;;5123741;28;20084;-81
2021/04/19 04:34:24;;;;;;;48.75;30.55;;;6.40;99.90;;;;;;5122303;28;20098;-80
2021/04/19 04:36:50;;;;;;;42.72;29.52;;;6.40;99.90;;;;;;5102172;28;20122;-75
2021/04/19 04:39:16;;;;;;;40.72;28.80;;;6.50;99.90;;;;;;5119990;28;20059;-76
2021/04/19 04:41:42;;;;;;;44.35;29.20;;;6.50;99.90;;;;;;5120056;28;20020;-79
2021/04/19 04:44:11;;;;;;;46.22;33.65;;;6.50;99.90;;;;;;5119883;28;20031;-77
2021/04/19 04:47:08;;;;;;;49.58;32.75;;;6.50;99.90;;;;;;5121006;28;20047;-75
2021/04/19 04:49:56;;;;;;;55.53;35.97;;;6.50;99.90;;;;;;5104169;28;20031;-77
2021/04/19 04:52:23;;;;;;;71.50;47.53;;;6.60;99.90;;;;;;5121528;28;20492;-78
2021/04/19 04:54:50;;;;;;;120.45;85.70;;;6.60;99.90;;;;;;5121561;28;20020;-78
2021/04/19 04:57:24;;;;;;;91.50;66.75;;;6.60;99.90;;;;;;5106449;28;20261;-81
2021/04/19 04:59:52;;;;;;;95.63;60.10;;;6.60;99.90;;;;;;5120653;28;20050;-73
2021/04/19 05:02:23;;;;;;;101.68;65.30;;;6.70;99.90;;;;;;5120132;28;20023;-76
2021/04/19 05:04:53;;;;;;;72.95;55.08;;;6.70;99.90;;;;;;5103524;28;20374;-79
2021/04/19 05:07:20;;;;;;;86.70;62.75;;;6.70;99.90;;;;;;5125199;28;20042;-76
2021/04/19 05:09:49;;;;;;;47.10;33.97;;;6.70;99.90;;;;;;5120949;28;20004;-80
2021/04/19 05:12:16;;;;;;;37.97;29.27;;;6.70;99.90;;;;;;5119531;28;20080;-80
2021/04/19 05:14:56;;;;;;;31.42;24.23;;;6.70;99.90;;;;;;5118673;28;20079;-79
2021/04/19 05:17:22;;;;;;;31.17;24.92;;;6.70;99.90;;;;;;5123745;28;20031;-82
2021/04/19 05:19:48;;;;;;;33.03;24.33;;;6.70;99.90;;;;;;5121762;28;20070;-81
2021/04/19 05:22:13;;;;;;;39.97;28.75;;;6.70;99.90;;;;;;5100775;28;20023;-75
2021/04/19 05:24:39;;;;;;;42.35;31.83;;;6.80;99.90;;;;;;5116607;28;20038;-77
2021/04/19 05:27:05;;;;;;;61.65;41.35;;;6.90;99.90;;;;;;5101038;28;20044;-76
2021/04/19 05:29:32;;;;;;;49.00;33.30;;;7.00;99.90;;;;;;5118242;28;20477;-76
2021/04/19 05:31:57;;;;;;;36.28;27.27;;;7.10;99.90;;;;;;5104370;28;20011;-77
2021/04/19 05:34:23;;;;;;;42.55;31.70;;;7.20;99.90;;;;;;5124005;28;20024;-78
2021/04/19 05:36:50;;;;;;;42.90;33.58;;;7.30;99.90;;;;;;5103712;28;20389;-80
2021/04/19 05:39:17;;;;;;;36.50;26.98;;;7.40;99.90;;;;;;5123667;28;20058;-84
2021/04/19 05:41:43;;;;;;;40.80;27.80;;;7.50;99.90;;;;;;5124243;28;20024;-75
2021/04/19 05:44:09;;;;;;;41.05;27.17;;;7.50;99.90;;;;;;5123588;28;20073;-75
2021/04/19 05:46:35;;;;;;;45.20;30.50;;;7.50;99.90;;;;;;5121565;28;20507;-73
2021/04/19 05:49:02;;;;;;;59.67;38.88;;;7.70;99.90;;;;;;5103618;28;20020;-80
2021/04/19 05:51:31;;;;;;;62.58;45.15;;;7.70;99.90;;;;;;5119762;28;20024;-75
2021/04/19 05:53:57;;;;;;;83.97;73.82;;;7.70;99.90;;;;;;5123420;28;20029;-74
2021/04/19 05:56:35;;;;;;;94.15;58.28;;;7.70;99.90;;;;;;5123027;28;20024;-82
2021/04/19 05:59:19;;;;;;;46.35;28.08;;;7.80;99.90;;;;;;5120531;28;20027;-73
2021/04/19 06:01:48;;;;;;;34.53;25.17;;;7.90;99.90;;;;;;5120655;28;20066;-74
2021/04/19 06:04:23;;;;;;;40.33;32.05;;;7.80;99.90;;;;;;5110008;28;20416;-73
2021/04/19 06:07:13;;;;;;;25.58;20.00;;;7.90;99.90;;;;;;5127970;28;20513;-74
2021/04/19 06:09:50;;;;;;;24.35;19.20;;;8.00;99.90;;;;;;5123232;28;20024;-74
2021/04/19 06:12:25;;;;;;;33.53;24.60;;;8.00;99.90;;;;;;5118033;28;20027;-75
2021/04/19 06:14:52;;;;;;;32.25;26.75;;;8.10;99.90;;;;;;5118311;28;20023;-80
2021/04/19 06:17:21;;;;;;;35.22;25.02;;;8.10;99.90;;;;;;5120017;28;20376;-76
2021/04/19 06:19:48;;;;;;;52.58;34.60;;;8.00;99.90;;;;;;5124840;28;20057;-76
2021/04/19 06:22:18;;;;;;;87.57;52.00;;;8.10;99.90;;;;;;5125584;28;20016;-81
2021/04/19 06:24:51;;;;;;;121.32;76.10;;;8.10;99.90;;;;;;5115256;27;20373;-76
2021/04/19 06:27:22;;;;;;;56.80;37.95;;;8.20;99.90;;;;;;5121905;28;20062;-75
2021/04/19 06:29:48;;;;;;;75.40;41.45;;;8.10;99.90;;;;;;5114112;28;20076;-75
2021/04/19 06:32:15;;;;;;;32.95;25.52;;;8.20;99.90;;;;;;5114230;28;20043;-75
2021/04/19 06:34:41;;;;;;;62.67;42.63;;;8.30;99.90;;;;;;5095150;28;20027;-74
2021/04/19 06:37:08;;;;;;;44.53;31.15;;;8.40;99.90;;;;;;5113208;28;20500;-74
2021/04/19 06:39:35;;;;;;;104.72;73.78;;;8.40;99.90;;;;;;5095306;28;20049;-74
2021/04/19 06:42:03;;;;;;;54.47;38.63;;;8.50;99.90;;;;;;5113697;28;20020;-74
2021/04/19 06:44:30;;;;;;;147.60;94.72;;;8.50;99.90;;;;;;5095672;28;20019;-74
2021/04/19 06:46:58;;;;;;;46.55;31.55;;;8.50;99.90;;;;;;5097763;28;20373;-75
2021/04/19 06:49:25;;;;;;;37.92;25.05;;;8.50;99.90;;;;;;5107876;28;20031;-83
2021/04/19 06:51:57;;;;;;;44.22;30.50;;;8.60;99.90;;;;;;5128133;28;20063;-75
2021/04/19 06:54:26;;;;;;;68.88;44.10;;;8.60;99.90;;;;;;5109336;28;20016;-83
2021/04/19 06:56:55;;;;;;;49.03;35.10;;;8.60;99.90;;;;;;5107232;28;20035;-83
2021/04/19 06:59:23;;;;;;;172.90;107.32;;;8.70;99.90;;;;;;5126995;28;20019;-82
2021/04/19 07:01:52;;;;;;;53.42;35.35;;;8.70;99.90;;;;;;5107007;28;20415;-82
2021/04/19 07:04:22;;;;;;;85.40;56.63;;;8.70;99.90;;;;;;5125831;28;20481;-83
2021/04/19 07:06:49;;;;;;;59.25;43.60;;;8.90;99.90;;;;;;5104815;28;20359;-83
2021/04/19 07:09:21;;;;;;;77.60;54.47;;;9.00;99.90;;;;;;5125020;28;20000;-83
2021/04/19 07:11:51;;;;;;;28.27;20.88;;;8.90;99.90;;;;;;5126931;28;20032;-74
2021/04/19 07:14:18;;;;;;;45.45;32.05;;;9.00;99.90;;;;;;5110031;28;20038;-83
2021/04/19 07:16:44;;;;;;;45.08;37.05;;;9.00;99.90;;;;;;5124103;28;20026;-83
2021/04/19 07:19:10;;;;;;;62.67;50.17;;;9.10;99.90;;;;;;5107095;28;20077;-82
2021/04/19 07:21:37;;;;;;;47.58;36.72;;;9.20;99.90;;;;;;5102989;28;20019;-74
2021/04/19 07:24:04;;;;;;;69.22;46.50;;;9.30;99.90;;;;;;5125355;28;20008;-83
2021/04/19 07:26:31;;;;;;;46.13;32.20;;;9.30;99.90;;;;;;5127327;28;20036;-74
2021/04/19 07:28:57;;;;;;;37.40;26.85;;;9.50;99.90;;;;;;5108075;28;20489;-75
2021/04/19 07:31:23;;;;;;;33.13;25.45;;;9.70;99.90;;;;;;5125708;28;20389;-83
2021/04/19 07:33:49;;;;;;;28.05;22.33;;;9.70;99.90;;;;;;5125706;28;20000;-74
2021/04/19 07:36:31;;;;;;;28.10;21.45;;;9.70;99.90;;;;;;5124998;28;20035;-84
2021/04/19 07:39:00;;;;;;;30.50;21.98;;;9.80;99.90;;;;;;5109633;28;20032;-84
2021/04/19 07:41:48;;;;;;;26.92;21.35;;;9.90;99.90;;;;;;5125554;28;20119;-74
2021/04/19 07:44:43;;;;;;;27.88;20.35;;;10.00;99.90;;;;;;5126445;28;20101;-82
2021/04/19 07:47:26;;;;;;;26.38;20.00;;;10.20;99.90;;;;;;5107982;28;20051;-74
2021/04/19 07:50:14;;;;;;;26.23;20.08;;;10.20;99.90;;;;;;5108418;28;20019;-81
2021/04/19 07:52:57;;;;;;;26.05;19.77;;;10.20;99.90;;;;;;5125013;28;20488;-76
2021/04/19 07:55:26;;;;;;;28.90;20.42;;;10.30;99.90;;;;;;5113727;28;20023;-74
2021/04/19 07:57:52;;;;;;;42.00;31.00;;;10.60;99.90;;;;;;5114471;28;20023;-74
2021/04/19 08:00:30;;;;;;;20.02;16.60;;;11.10;99.90;;;;;;5096213;28;20059;-74
2021/04/19 08:03:17;;;;;;;25.02;20.52;;;11.30;99.90;;;;;;5113286;28;20469;-75
2021/04/19 08:05:51;;;;;;;23.33;18.30;;;11.40;99.90;;;;;;5113285;28;20099;-75
2021/04/19 08:08:31;;;;;;;28.55;20.42;;;11.70;99.90;;;;;;5112662;28;20031;-75
2021/04/19 08:11:08;;;;;;;23.85;18.02;;;12.00;99.60;;;;;;5112317;28;20452;-74
2021/04/19 08:13:35;;;;;;;19.20;15.82;;;12.60;99.90;;;;;;5115373;28;20461;-75
2021/04/19 08:16:26;;;;;;;22.20;16.70;;;12.50;99.90;;;;;;5115687;28;20027;-74
2021/04/19 08:19:03;;;;;;;19.60;16.52;;;12.60;99.90;;;;;;5097877;28;20019;-77
2021/04/19 08:21:31;;;;;;;14.55;12.75;;;12.60;99.90;;;;;;5123933;28;20008;-74
2021/04/19 08:24:17;;;;;;;16.90;12.85;;;12.40;99.90;;;;;;5098084;28;20039;-74
2021/04/19 08:26:58;;;;;;;16.63;13.15;;;12.30;99.90;;;;;;5115852;28;20047;-81
2021/04/19 08:29:46;;;;;;;18.95;14.45;;;12.40;99.90;;;;;;5124793;28;20023;-79
2021/04/19 08:32:14;;;;;;;14.88;12.35;;;12.20;99.40;;;;;;5111783;28;20036;-75
2021/04/19 08:34:42;;;;;;;38.35;24.60;;;11.80;99.00;;;;;;5104123;28;20016;-83
2021/04/19 08:37:11;;;;;;;16.10;11.85;;;12.10;99.90;;;;;;5121510;28;20027;-74
2021/04/19 08:39:39;;;;;;;19.50;14.80;;;12.40;98.80;;;;;;5095988;28;20030;-75
2021/04/19 08:42:05;;;;;;;17.70;13.40;;;12.70;99.10;;;;;;5114680;28;20012;-74
2021/04/19 08:44:33;;;;;;;14.45;12.07;;;12.90;99.00;;;;;;5113273;28;20401;-74
2021/04/19 08:47:00;;;;;;;18.20;14.73;;;12.70;98.90;;;;;;5115853;28;20406;-83
2021/04/19 08:49:27;;;;;;;38.28;31.40;;;12.70;99.60;;;;;;5130384;28;20042;-81
2021/04/19 08:51:54;;;;;;;35.03;24.27;;;13.00;99.60;;;;;;5126939;28;20015;-83
2021/04/19 08:54:21;;;;;;;21.80;16.90;;;13.80;99.10;;;;;;5123359;28;20027;-84
2021/04/19 08:56:48;;;;;;;16.50;12.77;;;14.00;97.60;;;;;;5125193;28;20012;-74
2021/04/19 08:59:15;;;;;;;25.13;19.58;;;13.70;96.20;;;;;;5103950;28;20107;-74
2021/04/19 09:01:43;;;;;;;19.08;14.82;;;13.10;97.30;;;;;;5123877;28;20114;-83
2021/04/19 09:04:09;;;;;;;23.45;19.42;;;13.10;98.20;;;;;;5123543;28;20024;-83
2021/04/19 09:06:46;;;;;;;15.95;13.20;;;13.60;97.50;;;;;;5123358;28;20020;-83
2021/04/19 09:09:15;;;;;;;15.57;13.07;;;13.70;95.90;;;;;;5119644;28;20020;-84
2021/04/19 09:11:41;;;;;;;16.65;14.85;;;13.40;97.30;;;;;;5119180;28;20016;-74
2021/04/19 09:14:15;;;;;;;17.70;15.63;;;12.70;96.20;;;;;;5122701;28;20430;-75
2021/04/19 09:16:42;;;;;;;14.48;11.85;;;12.60;96.90;;;;;;5124359;28;20040;-83
2021/04/19 09:19:15;;;;;;;24.63;16.10;;;12.70;96.90;;;;;;5122241;28;20042;-74
2021/04/19 09:21:49;;;;;;;12.43;10.77;;;12.40;96.90;;;;;;5123871;28;20020;-80
2021/04/19 09:24:17;;;;;;;10.00;8.48;;;12.60;96.30;;;;;;5115806;28;20034;-79
2021/04/19 09:26:48;;;;;;;10.18;8.32;;;12.30;93.30;;;;;;5120438;28;20051;-84
2021/04/19 09:29:29;;;;;;;11.90;9.38;;;12.30;94.60;;;;;;5118958;28;20043;-85
2021/04/19 09:31:55;;;;;;;13.05;11.02;;;12.60;97.10;;;;;;5123380;28;20008;-83
2021/04/19 09:34:36;;;;;;;12.98;10.93;;;12.70;96.40;;;;;;5118110;28;20028;-83
2021/04/19 09:37:02;;;;;;;24.13;16.95;;;12.70;97.20;;;;;;5113920;28;20036;-76
2021/04/19 09:39:55;;;;;;;19.00;13.95;;;12.50;96.80;;;;;;5112884;28;20020;-74
2021/04/19 09:43:03;;;;;;;11.43;9.95;;;12.50;97.60;;;;;;5113141;28;20107;-81
2021/04/19 09:45:52;;;;;;;14.82;12.32;;;12.50;97.50;;;;;;5113391;28;20114;-76
2021/04/19 09:48:31;;;;;;;15.10;12.23;;;12.40;98.20;;;;;;5112234;28;20461;-75
2021/04/19 09:51:20;;;;;;;13.35;11.20;;;12.30;98.30;;;;;;5112013;28;20034;-75
2021/04/19 09:53:53;;;;;;;15.63;12.63;;;12.20;99.00;;;;;;5103809;28;20042;-75
2021/04/19 09:56:28;;;;;;;15.60;12.57;;;12.30;98.80;;;;;;5113433;28;20171;-73
2021/04/19 09:58:55;;;;;;;13.10;10.82;;;12.10;98.10;;;;;;5123374;28;20415;-81
2021/04/19 10:01:22;;;;;;;12.88;9.63;;;12.20;98.80;;;;;;5123159;28;20033;-84
2021/04/19 10:03:51;;;;;;;12.10;9.60;;;12.20;97.80;;;;;;5120908;28;20034;-76
2021/04/19 10:06:40;;;;;;;12.13;10.15;;;12.30;98.20;;;;;;5120392;28;20098;-84
2021/04/19 10:09:12;;;;;;;13.50;10.98;;;12.40;98.70;;;;;;5123093;28;20178;-75
2021/04/19 10:11:44;;;;;;;14.13;11.45;;;12.40;97.90;;;;;;5119879;28;20015;-85
2021/04/19 10:14:15;;;;;;;24.05;18.65;;;12.40;97.80;;;;;;5119807;28;20047;-83
2021/04/19 10:16:46;;;;;;;9.95;8.52;;;12.40;96.50;;;;;;5122379;28;20038;-84
2021/04/19 10:19:42;;;;;;;12.88;9.85;;;12.40;96.90;;;;;;5122141;28;20023;-84
2021/04/19 10:22:10;;;;;;;13.93;10.70;;;12.30;95.00;;;;;;5107471;28;20028;-81
2021/04/19 10:24:51;;;;;;;37.95;23.52;;;12.30;95.40;;;;;;5120040;28;20473;-85
2021/04/19 10:27:28;;;;;;;69.60;38.85;;;12.30;96.00;;;;;;5122051;28;20054;-84
2021/04/19 10:29:55;;;;;;;34.08;21.13;;;12.30;96.80;;;;;;5125600;28;20023;-84
2021/04/19 10:32:31;;;;;;;406.98;256.67;;;12.50;97.00;;;;;;5123438;28;20051;-80
2021/04/19 10:34:57;;;;;;;21.25;15.07;;;12.60;96.30;;;;;;5122237;28;20032;-81
2021/04/19 10:37:23;;;;;;;30.20;18.50;;;12.60;95.70;;;;;;5123501;28;20035;-75
2021/04/19 10:39:50;;;;;;;14.23;9.98;;;12.70;96.20;;;;;;5126262;28;20081;-79
2021/04/19 10:42:23;;;;;;;25.20;13.48;;;12.80;93.10;;;;;;5127437;28;20024;-79
2021/04/19 10:44:50;;;;;;;27.52;20.83;;;12.60;93.30;;;;;;5126490;28;20067;-82
2021/04/19 10:47:27;;;;;;;19.48;14.02;;;12.50;94.10;;;;;;5124406;28;20047;-75
2021/04/19 10:49:59;;;;;;;27.55;18.90;;;12.60;95.90;;;;;;5126234;28;20026;-75
2021/04/19 10:52:25;;;;;;;26.20;17.55;;;12.70;93.80;;;;;;5118632;28;20118;-83
2021/04/19 10:54:50;;;;;;;20.23;14.45;;;12.70;92.90;;;;;;5115879;28;20061;-75
2021/04/19 10:57:25;;;;;;;31.83;24.23;;;12.70;92.90;;;;;;5115590;28;20114;-75
2021/04/19 10:59:56;;;;;;;13.40;10.32;;;12.80;93.50;;;;;;5116010;28;20027;-75
2021/04/19 11:02:24;;;;;;;37.15;25.80;;;13.00;92.20;;;;;;5116222;28;20345;-76
2021/04/19 11:04:50;;;;;;;18.05;12.18;;;13.10;92.50;;;;;;5115079;28;20069;-75
2021/04/19 11:07:23;;;;;;;18.27;10.93;;;13.10;89.80;;;;;;5118455;28;20028;-79
2021/04/19 11:10:16;;;;;;;31.08;24.33;;;13.40;88.90;;;;;;5119128;28;20540;-74
2021/04/19 11:13:05;;;;;;;13.45;9.70;;;13.50;90.60;;;;;;5117626;28;20477;-81
2021/04/19 11:15:43;;;;;;;24.33;14.35;;;13.80;92.20;;;;;;5114409;28;20460;-80
2021/04/19 11:18:23;;;;;;;9.48;7.28;;;14.10;90.10;;;;;;5117634;28;20007;-75
2021/04/19 11:20:51;;;;;;;9.27;8.02;;;14.00;84.60;;;;;;5111203;28;20028;-76
2021/04/19 11:23:29;;;;;;;10.60;8.50;;;14.10;84.70;;;;;;5115188;28;20106;-76
2021/04/19 11:26:00;;;;;;;15.60;11.07;;;14.10;81.20;;;;;;5112992;28;20127;-76
2021/04/19 11:28:31;;;;;;;7.15;5.95;;;14.00;89.40;;;;;;5115752;28;20373;-75
2021/04/19 11:31:11;;;;;;;24.88;14.52;;;14.00;83.30;;;;;;5121377;28;20034;-81
2021/04/19 11:33:36;;;;;;;9.63;7.25;;;13.80;84.20;;;;;;5122595;28;20035;-76
2021/04/19 11:36:06;;;;;;;64.43;34.38;;;13.80;88.40;;;;;;5122350;28;20028;-81
2021/04/19 11:38:38;;;;;;;99.15;54.17;;;13.90;90.10;;;;;;5122394;28;20004;-76
2021/04/19 11:41:07;;;;;;;351.25;192.30;;;13.70;88.50;;;;;;5119087;28;20024;-74
2021/04/19 11:43:35;;;;;;;76.20;40.42;;;13.60;90.40;;;;;;5117898;28;20028;-79
2021/04/19 11:46:05;;;;;;;81.63;38.58;;;13.60;89.70;;;;;;5126791;28;20016;-83
2021/04/19 11:48:33;;;;;;;28.05;17.88;;;13.70;92.10;;;;;;5123790;28;20031;-83
2021/04/19 11:51:00;;;;;;;43.15;22.30;;;13.90;91.30;;;;;;5127136;28;20068;-81
2021/04/19 11:53:32;;;;;;;28.40;16.48;;;14.00;91.80;;;;;;5125317;28;20574;-82
2021/04/19 11:55:59;;;;;;;57.25;26.13;;;14.20;91.20;;;;;;5128176;28;20036;-73
2021/04/19 11:58:26;;;;;;;41.72;22.95;;;14.00;90.40;;;;;;5127233;28;20012;-83
2021/04/19 12:00:54;;;;;;;21.85;13.85;;;13.80;85.80;;;;;;5127782;28;20067;-78
2021/04/19 12:03:25;;;;;;;80.68;40.72;;;13.80;88.60;;;;;;5129597;28;20051;-73
2021/04/19 12:05:52;;;;;;;539.85;329.42;;;14.00;90.90;;;;;;5128564;28;20031;-82
2021/04/19 12:08:18;;;;;;;97.25;64.25;;;14.00;87.20;;;;;;5126222;28;20028;-74
2021/04/19 12:10:44;;;;;;;83.05;61.40;;;13.90;90.50;;;;;;5122239;28;20111;-76
2021/04/19 12:13:14;;;;;;;41.22;34.97;;;14.10;86.40;;;;;;5120661;28;20380;-84
2021/04/19 12:15:41;;;;;;;22.05;15.15;;;14.10;85.80;;;;;;5118641;28;20028;-75
2021/04/19 12:18:07;;;;;;;22.38;16.15;;;14.20;88.20;;;;;;5120585;28;20020;-76
2021/04/19 12:20:34;;;;;;;20.38;13.93;;;14.30;90.60;;;;;;5122424;28;20004;-84
2021/04/19 12:23:00;;;;;;;12.52;10.27;;;14.20;90.30;;;;;;5122618;28;20016;-85
2021/04/19 12:25:26;;;;;;;21.05;15.10;;;14.30;89.30;;;;;;5122097;28;20000;-75
2021/04/19 12:27:52;;;;;;;21.15;15.63;;;14.20;88.70;;;;;;5122375;28;20008;-85
2021/04/19 12:30:18;;;;;;;21.48;16.20;;;14.30;91.00;;;;;;5123144;28;20054;-74
2021/04/19 12:32:44;;;;;;;15.82;13.07;;;14.30;90.90;;;;;;5123674;28;20084;-84
2021/04/19 12:35:11;;;;;;;13.70;10.13;;;14.20;91.60;;;;;;5123796;28;20044;-84
2021/04/19 12:37:37;;;;;;;12.05;9.88;;;14.20;91.00;;;;;;5120606;28;20020;-74
2021/04/19 12:40:04;;;;;;;15.35;11.63;;;14.20;89.90;;;;;;5118018;28;20033;-75
2021/04/19 12:42:30;;;;;;;15.77;12.88;;;14.10;90.60;;;;;;5119979;28;20015;-81
2021/04/19 12:44:56;;;;;;;11.05;9.63;;;14.00;92.10;;;;;;5118622;28;20550;-75
2021/04/19 12:47:22;;;;;;;11.55;9.52;;;14.00;92.10;;;;;;5117298;28;20063;-78
2021/04/19 12:49:47;;;;;;;12.40;10.45;;;14.00;92.50;;;;;;5119494;28;20030;-76